createdAt,value
2022-08-16T00:00:47.237Z,99101.13
2022-08-16T00:01:40.595Z,99090.19
2022-08-16T00:02:36.629Z,99092.13
2022-08-16T00:03:26.431Z,99096.00
2022-08-16T00:04:12.588Z,99097.13
2022-08-16T00:05:00.412Z,99093.56
2022-08-16T00:05:48.580Z,99094.72
2022-08-16T00:09:07.365Z,99092.78
2022-08-16T00:09:53.852Z,99091.97
2022-08-16T00:10:56.111Z,99094.72
2022-08-16T00:11:46.035Z,99095.84
2022-08-16T00:12:34.457Z,99098.25
2022-08-16T00:13:54.311Z,99089.22
2022-08-16T00:14:38.029Z,99097.44
2022-08-16T00:15:24.589Z,99093.56
2022-08-16T00:17:06.371Z,99095.50
2022-08-16T00:17:56.335Z,99097.91
2022-08-16T00:18:36.208Z,99093.56
2022-08-16T00:19:28.338Z,99098.72
2022-08-16T00:20:15.516Z,99097.13
2022-08-16T00:21:03.829Z,99100.19
2022-08-16T00:21:53.269Z,99100.97
2022-08-16T00:22:40.590Z,99097.44
2022-08-16T00:23:40.378Z,99103.25
2022-08-16T00:24:33.159Z,99099.69
2022-08-16T00:25:17.282Z,99102.44
2022-08-16T00:26:35.576Z,99103.56
2022-08-16T00:27:11.527Z,99099.69
2022-08-16T00:28:07.481Z,99107.91
2022-08-16T00:29:07.746Z,99107.91
2022-08-16T00:30:00.668Z,99102.44
2022-08-16T00:30:50.421Z,99114.19
2022-08-16T00:31:58.691Z,99107.91
2022-08-16T00:32:38.754Z,99115.00
2022-08-16T00:33:50.036Z,99113.38
2022-08-16T00:34:44.299Z,99118.84
2022-08-16T00:35:36.817Z,99111.78
2022-08-16T00:36:22.664Z,99119.97
2022-08-16T00:37:11.383Z,99117.91
2022-08-16T00:37:59.480Z,99112.44
2022-08-16T00:38:43.755Z,99119.03
2022-08-16T00:39:29.741Z,99111.63
2022-08-16T00:40:53.675Z,99111.47
2022-08-16T00:41:38.283Z,99109.06
2022-08-16T00:42:29.738Z,99111.00
2022-08-16T00:43:12.214Z,99100.84
2022-08-16T00:44:00.111Z,99107.13
2022-08-16T00:44:44.884Z,99110.66
2022-08-16T00:45:29.368Z,99107.13
2022-08-16T00:46:22.291Z,99107.94
2022-08-16T00:47:17.475Z,99116.63
2022-08-16T00:48:02.218Z,99113.06
2022-08-16T00:49:02.755Z,99112.28
2022-08-16T00:49:56.292Z,99113.06
2022-08-16T00:50:39.662Z,99117.75
2022-08-16T00:51:24.429Z,99114.69
2022-08-16T00:52:09.436Z,99117.75
2022-08-16T00:53:10.191Z,99121.94
2022-08-16T00:53:55.079Z,99118.06
2022-08-16T00:54:39.970Z,99118.88
2022-08-16T00:55:24.951Z,99118.06
2022-08-16T00:56:58.119Z,99120.00
2022-08-16T00:57:24.046Z,99115.66
2022-08-16T00:58:13.263Z,99118.38
2022-08-16T00:58:58.359Z,99116.47
2022-08-16T00:59:54.711Z,99123.84
2022-08-16T01:00:43.050Z,99121.13
2022-08-16T01:01:31.227Z,99121.94
2022-08-16T01:02:30.571Z,99118.38
2022-08-16T01:03:14.311Z,99114.84
2022-08-16T01:03:59.412Z,99118.38
2022-08-16T01:04:44.153Z,99119.50
2022-08-16T01:05:45.469Z,99120.31
2022-08-16T01:06:32.654Z,99114.84
2022-08-16T01:07:50.760Z,99117.59
2022-08-16T01:08:36.527Z,99120.31
2022-08-16T01:09:20.367Z,99115.97
2022-08-16T01:10:04.346Z,99116.78
2022-08-16T01:10:59.962Z,99117.09
2022-08-16T01:11:53.873Z,99121.44
2022-08-16T01:12:38.750Z,99111.31
2022-08-16T01:13:22.683Z,99116.78
2022-08-16T01:14:07.877Z,99113.25
2022-08-16T01:14:51.885Z,99119.50
2022-08-16T01:15:35.159Z,99116.78
2022-08-16T01:16:20.004Z,99122.25
2022-08-16T01:17:08.474Z,99114.53
2022-08-16T01:17:56.047Z,99119.19
2022-08-16T01:18:41.461Z,99119.19
2022-08-16T01:19:27.127Z,99114.53
2022-08-16T01:20:24.392Z,99118.88
2022-08-16T01:21:11.053Z,99119.69
2022-08-16T01:21:55.747Z,99116.94
2022-08-16T01:22:55.889Z,99115.81
2022-08-16T01:23:58.524Z,99110.00
2022-08-16T01:24:52.573Z,99106.78
2022-08-16T01:25:38.701Z,99109.06
2022-08-16T01:26:34.673Z,99109.84
2022-08-16T01:27:17.993Z,99112.59
2022-08-16T01:28:03.671Z,99115.31
2022-08-16T01:28:49.342Z,99114.03
2022-08-16T01:29:56.840Z,99109.69
2022-08-16T01:30:40.227Z,99107.44
2022-08-16T01:31:31.116Z,99108.25
2022-08-16T01:32:33.484Z,99110.66
2022-08-16T01:33:15.773Z,99103.59
2022-08-16T01:33:59.805Z,99105.03
2022-08-16T01:34:47.375Z,99105.03
2022-08-16T01:35:37.130Z,99103.44
2022-08-16T01:36:26.630Z,99099.88
2022-08-16T01:37:10.504Z,99101.00
2022-08-16T01:37:54.765Z,99101.00
2022-08-16T01:38:39.962Z,99106.00
2022-08-16T01:39:29.270Z,99100.53
2022-08-16T01:40:16.316Z,99100.84
2022-08-16T01:41:04.433Z,99096.50
2022-08-16T01:41:48.780Z,99105.84
2022-08-16T01:42:34.356Z,99096.03
2022-08-16T01:43:23.469Z,99099.91
2022-08-16T01:44:06.541Z,99103.44
2022-08-16T01:44:53.380Z,99104.56
2022-08-16T01:45:40.722Z,99108.09
2022-08-16T01:46:31.244Z,99099.91
2022-08-16T01:47:22.937Z,99096.69
2022-08-16T01:48:05.422Z,99096.69
2022-08-16T01:49:02.003Z,99102.16
2022-08-16T01:50:42.305Z,99102.16
2022-08-16T01:51:09.592Z,99101.34
2022-08-16T01:51:47.907Z,99100.53
2022-08-16T01:52:31.468Z,99096.69
2022-08-16T01:53:14.211Z,99103.28
2022-08-16T01:53:57.729Z,99094.28
2022-08-16T01:54:41.985Z,99107.94
2022-08-16T01:55:26.900Z,99097.81
2022-08-16T01:56:24.955Z,99101.34
2022-08-16T01:57:07.183Z,99099.09
2022-08-16T01:57:56.320Z,99096.34
2022-08-16T01:58:37.369Z,99102.31
2022-08-16T01:59:20.474Z,99101.50
2022-08-16T02:00:10.477Z,99098.78
2022-08-16T02:01:02.692Z,99102.31
2022-08-16T02:01:52.902Z,99096.84
2022-08-16T02:02:43.726Z,99097.97
2022-08-16T02:03:32.006Z,99105.84
2022-08-16T02:04:40.094Z,99106.19
2022-08-16T02:05:19.890Z,99101.03
2022-08-16T02:06:08.017Z,99098.28
2022-08-16T02:06:51.654Z,99108.44
2022-08-16T02:07:36.341Z,99101.84
2022-08-16T02:08:33.709Z,99107.63
2022-08-16T02:09:17.942Z,99101.84
2022-08-16T02:10:02.035Z,99105.69
2022-08-16T02:10:45.898Z,99106.81
2022-08-16T02:11:47.663Z,99108.75
2022-08-16T02:12:39.727Z,99100.53
2022-08-16T02:13:34.867Z,99108.28
2022-08-16T02:14:21.471Z,99103.94
2022-08-16T02:15:05.697Z,99102.81
2022-08-16T02:15:51.145Z,99101.19
2022-08-16T02:16:36.243Z,99108.28
2022-08-16T02:17:21.062Z,99108.59
2022-08-16T02:18:06.798Z,99107.78
2022-08-16T02:18:56.428Z,99105.06
2022-08-16T02:19:58.923Z,99108.91
2022-08-16T02:20:42.558Z,99108.91
2022-08-16T02:21:31.423Z,99111.66
2022-08-16T02:22:36.750Z,99105.88
2022-08-16T02:23:17.365Z,99103.44
2022-08-16T02:24:00.807Z,99107.31
2022-08-16T02:24:45.984Z,99108.13
2022-08-16T02:25:50.861Z,99107.31
2022-08-16T02:26:28.200Z,99107.00
2022-08-16T02:27:15.700Z,99104.25
2022-08-16T02:28:00.413Z,99102.31
2022-08-16T02:28:45.329Z,99104.25
2022-08-16T02:29:32.046Z,99111.31
2022-08-16T02:30:35.694Z,99105.06
2022-08-16T02:31:17.311Z,99105.06
2022-08-16T02:32:03.314Z,99110.53
2022-08-16T02:33:02.511Z,99103.94
2022-08-16T02:33:50.073Z,99101.19
2022-08-16T02:34:40.640Z,99107.47
2022-08-16T02:35:24.236Z,99102.00
2022-08-16T02:36:14.337Z,99100.38
2022-08-16T02:37:08.914Z,99103.44
2022-08-16T02:37:56.091Z,99102.66
2022-08-16T02:38:44.611Z,99095.25
2022-08-16T02:39:32.579Z,99099.91
2022-08-16T02:40:20.477Z,99094.91
2022-08-16T02:41:09.606Z,99103.44
2022-08-16T02:41:53.558Z,99099.59
2022-08-16T02:42:35.901Z,99103.13
2022-08-16T02:43:21.413Z,99097.66
2022-08-16T02:44:07.275Z,99094.13
2022-08-16T02:44:55.501Z,99097.97
2022-08-16T02:45:40.253Z,99098.78
2022-08-16T02:46:33.369Z,99103.44
2022-08-16T02:47:25.335Z,99099.09
2022-08-16T02:48:29.946Z,99098.31
2022-08-16T02:49:08.035Z,99101.03
2022-08-16T02:49:59.269Z,99106.50
2022-08-16T02:51:10.988Z,99107.31
2022-08-16T02:51:54.767Z,99106.81
2022-08-16T02:52:43.740Z,99105.22
2022-08-16T02:53:28.669Z,99112.63
2022-08-16T02:54:12.810Z,99105.22
2022-08-16T02:54:57.730Z,99110.69
2022-08-16T02:55:42.197Z,99110.69
2022-08-16T02:56:32.226Z,99109.09
2022-08-16T02:57:16.226Z,99107.94
2022-08-16T02:58:01.497Z,99106.81
2022-08-16T02:58:45.642Z,99105.69
2022-08-16T02:59:27.257Z,99109.25
2022-08-16T03:00:34.024Z,99105.69
2022-08-16T03:01:25.085Z,99105.22
2022-08-16T03:02:20.903Z,99102.50
2022-08-16T03:03:15.211Z,99100.88
2022-08-16T03:04:40.628Z,99102.50
2022-08-16T03:05:01.753Z,99104.09
2022-08-16T03:05:52.188Z,99105.69
2022-08-16T03:06:42.479Z,99103.78
2022-08-16T03:07:27.743Z,99106.19
2022-08-16T03:08:50.242Z,99103.78
2022-08-16T03:09:15.054Z,99100.56
2022-08-16T03:10:00.827Z,99103.28
2022-08-16T03:10:45.093Z,99107.94
2022-08-16T03:11:35.588Z,99101.03
2022-08-16T03:12:19.075Z,99103.44
2022-08-16T03:13:03.555Z,99108.91
2022-08-16T03:13:54.130Z,99101.84
2022-08-16T03:14:36.974Z,99099.44
2022-08-16T03:15:20.925Z,99101.84
2022-08-16T03:16:04.799Z,99099.91
2022-08-16T03:16:59.664Z,99108.91
2022-08-16T03:17:53.877Z,99109.72
2022-08-16T03:18:40.371Z,99103.44
2022-08-16T03:19:24.771Z,99111.97
2022-08-16T03:20:07.707Z,99108.44
2022-08-16T03:20:55.510Z,99102.97
2022-08-16T03:21:39.787Z,99105.69
2022-08-16T03:22:28.191Z,99107.31
2022-08-16T03:23:11.674Z,99111.16
2022-08-16T03:23:56.404Z,99111.66
2022-08-16T03:24:40.792Z,99107.00
2022-08-16T03:25:28.250Z,99113.25
2022-08-16T03:26:25.575Z,99108.91
2022-08-16T03:27:08.955Z,99103.44
2022-08-16T03:27:54.207Z,99111.66
2022-08-16T03:28:37.927Z,99108.91
2022-08-16T03:29:23.265Z,99106.19
2022-08-16T03:30:16.225Z,99120.66
2022-08-16T03:30:59.394Z,99111.66
2022-08-16T03:31:45.019Z,99105.38
2022-08-16T03:32:33.129Z,99112.78
2022-08-16T03:33:18.840Z,99105.69
2022-08-16T03:34:07.243Z,99111.97
2022-08-16T03:34:55.827Z,99103.78
2022-08-16T03:35:43.663Z,99113.09
2022-08-16T03:36:31.130Z,99112.78
2022-08-16T03:37:15.565Z,99112.31
2022-08-16T03:38:02.570Z,99106.50
2022-08-16T03:38:46.164Z,99108.44
2022-08-16T03:39:34.717Z,99101.34
2022-08-16T03:40:33.079Z,99109.56
2022-08-16T03:41:25.429Z,99107.16
2022-08-16T03:42:20.186Z,99107.94
2022-08-16T03:43:19.808Z,99108.75
2022-08-16T03:44:03.701Z,99107.94
2022-08-16T03:44:52.097Z,99109.09
2022-08-16T03:45:46.498Z,99112.13
2022-08-16T03:46:47.903Z,99109.41
2022-08-16T03:47:34.142Z,99111.81
2022-08-16T03:48:19.841Z,99110.22
2022-08-16T03:49:04.191Z,99110.22
2022-08-16T03:49:51.499Z,99105.88
2022-08-16T03:50:34.187Z,99110.53
2022-08-16T03:51:23.628Z,99112.47
2022-08-16T03:52:07.909Z,99113.25
2022-08-16T03:52:51.958Z,99115.69
2022-08-16T03:53:38.431Z,99109.72
2022-08-16T03:54:22.469Z,99109.41
2022-08-16T03:55:06.915Z,99113.25
2022-08-16T03:55:52.898Z,99106.19
2022-08-16T03:56:37.196Z,99109.72
2022-08-16T03:57:21.520Z,99112.47
2022-08-16T03:58:04.628Z,99107.00
2022-08-16T03:58:50.860Z,99113.25
2022-08-16T03:59:33.816Z,99113.25
2022-08-16T04:00:35.358Z,99105.88
2022-08-16T04:01:18.658Z,99110.84
2022-08-16T04:02:04.191Z,99109.72
2022-08-16T04:02:54.025Z,99116.31
2022-08-16T04:03:39.991Z,99115.19
2022-08-16T04:04:32.502Z,99114.06
2022-08-16T04:05:16.230Z,99120.34
2022-08-16T04:06:00.490Z,99117.59
2022-08-16T04:06:45.237Z,99115.69
2022-08-16T04:07:33.448Z,99118.72
2022-08-16T04:08:22.763Z,99126.63
2022-08-16T04:09:07.938Z,99119.53
2022-08-16T04:09:52.900Z,99116.47
2022-08-16T04:10:39.758Z,99124.19
2022-08-16T04:11:25.474Z,99120.34
2022-08-16T04:12:11.216Z,99125.50
2022-08-16T04:13:20.605Z,99123.41
2022-08-16T04:14:32.541Z,99127.25
2022-08-16T04:15:16.989Z,99128.06
2022-08-16T04:15:59.368Z,99117.44
2022-08-16T04:16:44.257Z,99131.13
2022-08-16T04:17:27.314Z,99124.03
2022-08-16T04:18:12.183Z,99126.78
2022-08-16T04:19:02.616Z,99127.09
2022-08-16T04:19:45.642Z,99129.84
2022-08-16T04:20:33.942Z,99128.72
2022-08-16T04:21:29.443Z,99127.91
2022-08-16T04:22:12.831Z,99133.38
2022-08-16T04:22:57.093Z,99120.03
2022-08-16T04:23:42.546Z,99127.91
2022-08-16T04:24:28.831Z,99130.63
2022-08-16T04:25:12.869Z,99125.50
2022-08-16T04:25:57.698Z,99122.75
2022-08-16T04:26:46.565Z,99129.84
2022-08-16T04:27:32.050Z,99124.69
2022-08-16T04:28:54.357Z,99129.34
2022-08-16T04:29:23.523Z,99123.88
2022-08-16T04:30:11.002Z,99125.00
2022-08-16T04:30:52.785Z,99129.34
2022-08-16T04:31:39.631Z,99132.09
2022-08-16T04:32:26.778Z,99129.34
2022-08-16T04:33:11.198Z,99127.75
2022-08-16T04:33:59.300Z,99128.53
2022-08-16T04:34:46.725Z,99137.22
2022-08-16T04:35:34.349Z,99133.69
2022-08-16T04:36:20.119Z,99137.22
2022-08-16T04:37:05.147Z,99134.50
2022-08-16T04:37:53.870Z,99144.31
2022-08-16T04:38:40.732Z,99143.81
2022-08-16T04:39:45.017Z,99142.22
2022-08-16T04:40:30.898Z,99141.09
2022-08-16T04:41:16.333Z,99147.19
2022-08-16T04:42:01.032Z,99143.19
2022-08-16T04:42:54.795Z,99150.09
2022-08-16T04:43:39.255Z,99140.28
2022-08-16T04:44:52.707Z,99155.06
2022-08-16T04:45:35.724Z,99149.94
2022-08-16T04:47:00.248Z,99146.38
2022-08-16T04:47:21.751Z,99147.50
2022-08-16T04:48:07.195Z,99148.00
2022-08-16T04:48:52.881Z,99150.09
2022-08-16T04:49:46.235Z,99141.25
2022-08-16T04:50:30.280Z,99153.16
2022-08-16T04:51:14.980Z,99147.38
2022-08-16T04:51:56.869Z,99152.50
2022-08-16T04:52:42.178Z,99154.44
2022-08-16T04:53:26.842Z,99151.38
2022-08-16T04:54:21.394Z,99153.00
2022-08-16T04:55:15.283Z,99153.81
2022-08-16T04:56:17.008Z,99154.28
2022-08-16T04:57:02.100Z,99156.38
2022-08-16T04:57:46.440Z,99158.78
2022-08-16T04:58:44.471Z,99161.53
2022-08-16T04:59:29.647Z,99159.13
2022-08-16T05:00:32.609Z,99151.72
2022-08-16T05:01:17.071Z,99150.41
2022-08-16T05:02:01.120Z,99157.81
2022-08-16T05:02:46.582Z,99155.91
2022-08-16T05:03:33.644Z,99152.34
2022-08-16T05:04:19.527Z,99153.97
2022-08-16T05:05:03.625Z,99155.56
2022-08-16T05:05:59.184Z,99153.63
2022-08-16T05:06:46.132Z,99153.63
2022-08-16T05:07:30.654Z,99150.09
2022-08-16T05:08:29.638Z,99154.44
2022-08-16T05:09:12.102Z,99157.66
2022-08-16T05:09:57.839Z,99159.91
2022-08-16T05:10:43.675Z,99159.91
2022-08-16T05:11:32.172Z,99160.41
2022-08-16T05:12:21.979Z,99160.41
2022-08-16T05:13:04.487Z,99164.25
2022-08-16T05:13:47.020Z,99161.53
2022-08-16T05:14:45.207Z,99162.66
2022-08-16T05:15:29.803Z,99162.16
2022-08-16T05:16:21.488Z,99159.75
2022-08-16T05:17:04.015Z,99166.34
2022-08-16T05:17:58.458Z,99172.94
2022-08-16T05:18:41.819Z,99159.59
2022-08-16T05:19:25.033Z,99160.72
2022-08-16T05:20:35.320Z,99158.31
2022-08-16T05:21:11.139Z,99165.69
2022-08-16T05:21:54.594Z,99163.28
2022-08-16T05:22:40.131Z,99164.09
2022-08-16T05:23:31.619Z,99165.22
2022-08-16T05:24:15.678Z,99151.06
2022-08-16T05:25:09.037Z,99164.41
2022-08-16T05:25:52.047Z,99155.88
2022-08-16T05:26:40.877Z,99155.88
2022-08-16T05:27:26.266Z,99157.00
2022-08-16T05:28:13.700Z,99164.91
2022-08-16T05:29:04.409Z,99166.03
2022-08-16T05:29:57.725Z,99164.91
2022-08-16T05:30:43.243Z,99153.97
2022-08-16T05:31:29.516Z,99156.69
2022-08-16T05:32:32.973Z,99164.09
2022-08-16T05:33:16.949Z,99154.59
2022-08-16T05:34:00.634Z,99165.53
2022-08-16T05:34:45.776Z,99159.25
2022-08-16T05:35:29.839Z,99165.22
2022-08-16T05:36:15.465Z,99172.28
2022-08-16T05:37:03.819Z,99164.09
2022-08-16T05:37:48.193Z,99167.63
2022-08-16T05:38:39.273Z,99168.44
2022-08-16T05:39:22.843Z,99168.44
2022-08-16T05:40:08.126Z,99169.25
2022-08-16T05:40:59.841Z,99162.66
2022-08-16T05:41:45.300Z,99163.44
2022-08-16T05:42:35.857Z,99171.66
2022-08-16T05:43:20.377Z,99166.66
2022-08-16T05:44:22.981Z,99171.34
2022-08-16T05:45:07.907Z,99180.34
2022-08-16T05:45:55.894Z,99174.06
2022-08-16T05:46:43.782Z,99174.06
2022-08-16T05:47:26.593Z,99172.13
2022-08-16T05:48:13.657Z,99175.19
2022-08-16T05:49:05.808Z,99180.66
2022-08-16T05:49:51.349Z,99175.19
2022-08-16T05:50:41.747Z,99177.13
2022-08-16T05:51:37.552Z,99177.13
2022-08-16T05:52:21.156Z,99176.31
2022-08-16T05:53:06.102Z,99177.13
2022-08-16T05:53:51.016Z,99184.53
2022-08-16T05:54:58.455Z,99178.25
2022-08-16T05:55:44.905Z,99171.97
2022-08-16T05:56:32.088Z,99180.97
2022-08-16T05:57:19.066Z,99180.97
2022-08-16T05:58:01.997Z,99181.78
2022-08-16T05:58:48.757Z,99186.44
2022-08-16T05:59:36.796Z,99184.53
2022-08-16T06:00:22.978Z,99186.44
2022-08-16T06:01:17.765Z,99188.06
2022-08-16T06:02:07.711Z,99185.81
2022-08-16T06:02:55.634Z,99187.41
2022-08-16T06:03:37.478Z,99181.16
2022-08-16T06:04:36.520Z,99181.31
2022-08-16T06:05:20.764Z,99190.00
2022-08-16T06:06:08.579Z,99185.00
2022-08-16T06:06:56.519Z,99176.47
2022-08-16T06:07:40.948Z,99173.75
2022-08-16T06:08:32.045Z,99178.41
2022-08-16T06:09:24.177Z,99179.69
2022-08-16T06:10:09.742Z,99179.38
2022-08-16T06:11:05.618Z,99184.84
2022-08-16T06:11:52.882Z,99179.88
2022-08-16T06:12:39.568Z,99179.88
2022-08-16T06:13:23.998Z,99185.00
2022-08-16T06:14:09.885Z,99184.22
2022-08-16T06:14:58.972Z,99185.81
2022-08-16T06:15:44.075Z,99183.09
2022-08-16T06:16:31.868Z,99176.50
2022-08-16T06:17:21.619Z,99183.56
2022-08-16T06:18:06.427Z,99182.44
2022-08-16T06:18:55.415Z,99179.69
2022-08-16T06:19:44.640Z,99181.31
2022-08-16T06:20:35.396Z,99184.03
2022-08-16T06:21:22.738Z,99179.38
2022-08-16T06:22:06.083Z,99181.78
2022-08-16T06:22:58.795Z,99179.06
2022-08-16T06:23:46.895Z,99179.06
2022-08-16T06:24:54.746Z,99181.47
2022-08-16T06:25:36.335Z,99181.47
2022-08-16T06:26:19.204Z,99185.34
2022-08-16T06:27:02.592Z,99183.41
2022-08-16T06:27:57.174Z,99190.47
2022-08-16T06:28:41.498Z,99184.22
2022-08-16T06:29:28.390Z,99185.81
2022-08-16T06:30:13.605Z,99194.03
2022-08-16T06:31:01.888Z,99192.09
2022-08-16T06:31:49.155Z,99196.44
2022-08-16T06:32:37.615Z,99195.63
2022-08-16T06:33:26.604Z,99190.97
2022-08-16T06:34:54.865Z,99189.34
2022-08-16T06:35:17.208Z,99187.28
2022-08-16T06:36:10.639Z,99190.47
2022-08-16T06:36:59.339Z,99184.69
2022-08-16T06:37:47.018Z,99186.94
2022-08-16T06:38:34.612Z,99191.59
2022-08-16T06:39:19.301Z,99183.88
2022-08-16T06:40:12.968Z,99183.88
2022-08-16T06:40:59.100Z,99186.94
2022-08-16T06:41:42.748Z,99189.69
2022-08-16T06:43:09.956Z,99194.81
2022-08-16T06:44:00.881Z,99189.34
2022-08-16T06:44:50.825Z,99189.03
2022-08-16T06:45:43.251Z,99191.78
2022-08-16T06:46:24.693Z,99193.69
2022-08-16T06:47:16.833Z,99201.59
2022-08-16T06:48:04.548Z,99190.97
2022-08-16T06:49:01.891Z,99192.56
2022-08-16T06:49:52.634Z,99199.16
2022-08-16T06:50:38.385Z,99191.78
2022-08-16T06:51:24.263Z,99193.69
2022-08-16T06:53:00.759Z,99199.66
2022-08-16T06:53:28.012Z,99198.84
2022-08-16T06:54:15.824Z,99195.31
2022-08-16T06:55:05.614Z,99203.19
2022-08-16T06:55:53.707Z,99202.38
2022-08-16T06:56:41.601Z,99201.25
2022-08-16T06:57:27.874Z,99202.38
2022-08-16T06:58:22.109Z,99201.59
2022-08-16T06:59:08.927Z,99199.66
2022-08-16T06:59:58.315Z,99199.66
2022-08-16T07:00:47.419Z,99207.06
2022-08-16T07:01:45.165Z,99200.78
2022-08-16T07:02:33.983Z,99205.13
2022-08-16T07:03:26.910Z,99207.88
2022-08-16T07:04:13.897Z,99203.19
2022-08-16T07:05:19.903Z,99209.47
2022-08-16T07:06:12.551Z,99212.22
2022-08-16T07:07:00.442Z,99212.22
2022-08-16T07:07:45.308Z,99206.75
2022-08-16T07:08:35.116Z,99205.94
2022-08-16T07:09:23.279Z,99213.00
2022-08-16T07:10:15.775Z,99211.41
2022-08-16T07:11:11.521Z,99208.34
2022-08-16T07:12:03.367Z,99212.22
2022-08-16T07:13:03.394Z,99206.75
2022-08-16T07:14:00.488Z,99213.00
2022-08-16T07:14:57.336Z,99213.00
2022-08-16T07:15:50.588Z,99219.28
2022-08-16T07:16:32.529Z,99214.94
2022-08-16T07:17:20.489Z,99230.22
2022-08-16T07:18:18.126Z,99228.31
2022-08-16T07:19:07.688Z,99227.50
2022-08-16T07:20:30.227Z,99222.03
2022-08-16T07:21:01.785Z,99220.09
2022-08-16T07:21:46.646Z,99216.56
2022-08-16T07:22:43.896Z,99225.56
2022-08-16T07:23:39.253Z,99225.56
2022-08-16T07:24:29.882Z,99227.50
2022-08-16T07:25:16.825Z,99229.44
2022-08-16T07:26:04.215Z,99228.31
2022-08-16T07:26:48.758Z,99230.22
2022-08-16T07:27:37.230Z,99230.22
2022-08-16T07:28:24.381Z,99225.56
2022-08-16T07:29:11.887Z,99224.75
2022-08-16T07:30:01.319Z,99226.69
2022-08-16T07:30:51.244Z,99230.22
2022-08-16T07:31:41.484Z,99229.44
2022-08-16T07:32:29.148Z,99230.22
2022-08-16T07:33:16.046Z,99228.63
2022-08-16T07:34:00.707Z,99231.34
2022-08-16T07:34:48.432Z,99223.16
2022-08-16T07:35:33.760Z,99227.00
2022-08-16T07:36:23.074Z,99227.00
2022-08-16T07:37:14.231Z,99231.34
2022-08-16T07:37:59.497Z,99231.34
2022-08-16T07:38:45.499Z,99234.09
2022-08-16T07:39:33.973Z,99232.97
2022-08-16T07:40:32.167Z,99231.03
2022-08-16T07:41:24.144Z,99228.31
2022-08-16T07:42:25.919Z,99230.22
2022-08-16T07:43:11.308Z,99224.75
2022-08-16T07:43:57.628Z,99222.84
2022-08-16T07:44:50.652Z,99224.75
2022-08-16T07:45:35.368Z,99225.56
2022-08-16T07:46:38.687Z,99228.31
2022-08-16T07:47:31.613Z,99229.91
2022-08-16T07:48:13.487Z,99226.38
2022-08-16T07:49:02.607Z,99232.66
2022-08-16T07:49:57.965Z,99226.38
2022-08-16T07:50:56.076Z,99229.91
2022-08-16T07:51:42.250Z,99234.56
2022-08-16T07:52:31.295Z,99232.66
2022-08-16T07:53:20.148Z,99235.38
2022-08-16T07:54:09.500Z,99232.66
2022-08-16T07:54:56.072Z,99231.84
2022-08-16T07:55:45.620Z,99235.38
2022-08-16T07:56:33.844Z,99233.44
2022-08-16T07:57:19.057Z,99237.00
2022-08-16T07:58:04.348Z,99238.13
2022-08-16T07:58:55.555Z,99238.94
2022-08-16T07:59:42.884Z,99236.19
2022-08-16T08:00:25.250Z,99234.25
2022-08-16T08:01:00.330Z,99230.72
2022-08-16T08:01:36.626Z,99237.31
2022-08-16T08:02:13.951Z,99232.66
2022-08-16T08:02:57.050Z,99233.44
2022-08-16T08:03:36.092Z,99233.44
2022-08-16T08:04:14.348Z,99237.00
2022-08-16T08:04:50.537Z,99239.72
2022-08-16T08:05:35.381Z,99245.19
2022-08-16T08:06:12.231Z,99243.28
2022-08-16T08:06:51.135Z,99239.72
2022-08-16T08:07:27.611Z,99229.09
2022-08-16T08:08:11.938Z,99240.06
2022-08-16T08:08:59.992Z,99241.97
2022-08-16T08:09:36.438Z,99233.78
2022-08-16T08:10:29.425Z,99237.31
2022-08-16T08:11:09.283Z,99240.84
2022-08-16T08:12:00.647Z,99236.19
2022-08-16T08:12:36.807Z,99238.94
2022-08-16T08:13:13.711Z,99249.88
2022-08-16T08:13:50.697Z,99242.47
2022-08-16T08:14:29.862Z,99252.28
2022-08-16T08:15:05.572Z,99247.13
2022-08-16T08:15:52.503Z,99247.13
2022-08-16T08:16:30.755Z,99251.47
2022-08-16T08:17:06.344Z,99254.22
2022-08-16T08:17:44.421Z,99259.69
2022-08-16T08:18:29.859Z,99251.47
2022-08-16T08:19:06.580Z,99256.16
2022-08-16T08:19:45.709Z,99256.16
2022-08-16T08:20:28.941Z,99259.69
2022-08-16T08:21:05.192Z,99255.03
2022-08-16T08:21:59.393Z,99254.22
2022-08-16T08:22:37.555Z,99255.81
2022-08-16T08:23:13.421Z,99256.94
2022-08-16T08:23:50.272Z,99252.28
2022-08-16T08:24:32.141Z,99259.69
2022-08-16T08:25:07.977Z,99262.41
2022-08-16T08:25:53.655Z,99256.16
2022-08-16T08:26:30.623Z,99253.41
2022-08-16T08:27:07.720Z,99256.94
2022-08-16T08:27:44.260Z,99258.88
2022-08-16T08:28:20.368Z,99257.75
2022-08-16T08:29:01.060Z,99253.41
2022-08-16T08:29:40.176Z,99263.22
2022-08-16T08:30:51.909Z,99256.94
2022-08-16T08:31:12.058Z,99259.69
2022-08-16T08:31:53.065Z,99262.41
2022-08-16T08:33:00.572Z,99263.22
2022-08-16T08:33:24.540Z,99261.63
2022-08-16T08:34:04.915Z,99261.28
2022-08-16T08:34:40.557Z,99267.56
2022-08-16T08:35:26.865Z,99260.50
2022-08-16T08:36:02.974Z,99257.75
2022-08-16T08:36:40.765Z,99265.97
2022-08-16T08:37:19.283Z,99262.09
2022-08-16T08:37:56.505Z,99264.03
2022-08-16T08:38:45.826Z,99262.41
2022-08-16T08:39:21.897Z,99264.03
2022-08-16T08:39:58.709Z,99259.69
2022-08-16T08:40:35.308Z,99260.50
2022-08-16T08:41:11.821Z,99259.38
2022-08-16T08:41:49.471Z,99262.09
2022-08-16T08:42:26.635Z,99262.09
2022-08-16T08:43:11.777Z,99258.56
2022-08-16T08:43:50.426Z,99262.09
2022-08-16T08:44:28.815Z,99264.84
2022-08-16T08:45:06.423Z,99269.50
2022-08-16T08:45:48.773Z,99260.16
2022-08-16T08:46:25.209Z,99268.38
2022-08-16T08:47:02.730Z,99271.13
2022-08-16T08:47:39.481Z,99267.56
2022-08-16T08:48:33.270Z,99267.56
2022-08-16T08:49:09.722Z,99268.38
2022-08-16T08:49:55.026Z,99272.25
2022-08-16T08:50:31.588Z,99268.38
2022-08-16T08:51:09.084Z,99269.50
2022-08-16T08:51:45.341Z,99264.84
2022-08-16T08:52:34.297Z,99262.91
2022-08-16T08:53:11.024Z,99264.84
2022-08-16T08:53:57.714Z,99260.16
2022-08-16T08:54:34.259Z,99263.72
2022-08-16T08:55:11.451Z,99271.13
2022-08-16T08:55:48.515Z,99260.16
2022-08-16T08:56:35.323Z,99260.97
2022-08-16T08:57:12.200Z,99265.63
2022-08-16T08:57:48.966Z,99262.09
2022-08-16T08:58:24.712Z,99265.63
2022-08-16T08:59:13.476Z,99270.00
2022-08-16T08:59:55.958Z,99272.72
2022-08-16T09:00:32.162Z,99269.19
2022-08-16T09:01:31.833Z,99269.19
2022-08-16T09:02:12.437Z,99271.91
2022-08-16T09:02:52.017Z,99272.72
2022-08-16T09:03:27.973Z,99274.66
2022-08-16T09:04:02.985Z,99277.38
2022-08-16T09:04:40.467Z,99271.91
2022-08-16T09:05:17.385Z,99273.03
2022-08-16T09:05:53.835Z,99271.91
2022-08-16T09:06:30.792Z,99272.72
2022-08-16T09:07:06.904Z,99272.72
2022-08-16T09:08:01.376Z,99278.19
2022-08-16T09:08:37.556Z,99270.78
2022-08-16T09:09:16.992Z,99272.72
2022-08-16T09:10:06.279Z,99280.94
2022-08-16T09:10:42.559Z,99283.66
2022-08-16T09:11:18.682Z,99275.47
2022-08-16T09:12:06.242Z,99277.38
2022-08-16T09:12:42.397Z,99278.19
2022-08-16T09:13:22.266Z,99272.72
2022-08-16T09:13:58.763Z,99280.94
2022-08-16T09:14:35.202Z,99270.00
2022-08-16T09:15:13.579Z,99269.19
2022-08-16T09:15:50.426Z,99276.25
2022-08-16T09:17:01.680Z,99275.47
2022-08-16T09:17:48.856Z,99273.53
2022-08-16T09:18:25.129Z,99278.19
2022-08-16T09:19:03.919Z,99279.81
2022-08-16T09:19:40.910Z,99279.00
2022-08-16T09:20:17.614Z,99277.06
2022-08-16T09:20:59.034Z,99273.53
2022-08-16T09:21:36.145Z,99280.59
2022-08-16T09:22:20.868Z,99282.53
2022-08-16T09:22:57.196Z,99280.94